Time;durP1;ratioP1;P1;durP2;ratioP2;P2;SDS_P1;SDS_P2;PMS_P1;PMS_P2;Temp;Humidity;BMP_temperature;BMP_pressure;BME280_temperature;BME280_humidity;BME280_pressure;Samples;Min_cycle;Max_cycle;Signal;HPM_P1;HPM_P2
2022/11/17 00:01:43;;;;;;;5.53;5.03;;;9.80;99.90;;;;;;4948060;29;20031;-76
2022/11/17 00:04:10;;;;;;;9.32;5.03;;;9.80;99.90;;;;;;4930965;29;20023;-76
2022/11/17 00:06:35;;;;;;;4.95;4.55;;;9.80;99.90;;;;;;4931487;29;20049;-76
2022/11/17 00:09:01;;;;;;;6.10;4.07;;;9.80;99.90;;;;;;4948428;29;20067;-77
2022/11/17 00:14:31;;;;;;;4.07;3.75;;;9.80;99.90;;;;;;4915316;29;20041;-77
2022/11/17 00:14:31;;;;;;;4.85;4.22;;;9.80;99.90;;;;;;4947631;29;20046;-77
2022/11/17 00:17:01;;;;;;;7.65;4.63;;;9.80;99.90;;;;;;4920300;29;20043;-77
2022/11/17 00:22:11;;;;;;;9.63;4.03;;;9.80;99.90;;;;;;4948586;29;20028;-78
2022/11/17 00:24:37;;;;;;;8.82;3.83;;;9.80;99.90;;;;;;4931149;29;20016;-77
2022/11/17 00:27:03;;;;;;;5.28;3.83;;;9.80;99.90;;;;;;4948376;29;20043;-77
2022/11/17 00:29:30;;;;;;;6.30;4.00;;;9.80;99.90;;;;;;4931022;29;20182;-77
2022/11/17 00:34:40;;;;;;;5.85;3.72;;;9.70;99.90;;;;;;4948106;29;20039;-77
2022/11/17 00:37:07;;;;;;;5.68;3.60;;;9.80;99.90;;;;;;4948342;29;20496;-76
2022/11/17 00:39:33;;;;;;;13.95;6.60;;;9.80;99.90;;;;;;4948240;29;20083;-77
2022/11/17 00:41:59;;;;;;;5.85;4.40;;;9.80;99.90;;;;;;4948263;29;20035;-77
2022/11/17 00:44:25;;;;;;;5.80;3.33;;;9.70;99.90;;;;;;4948080;29;20039;-77
2022/11/17 00:46:51;;;;;;;9.63;4.95;;;9.80;99.90;;;;;;4947906;29;20051;-77
2022/11/17 00:49:23;;;;;;;4.05;3.17;;;9.80;99.90;;;;;;4947771;29;20060;-77
2022/11/17 00:51:50;;;;;;;4.82;4.18;;;9.80;99.90;;;;;;4912135;29;20036;-78
2022/11/17 00:54:17;;;;;;;3.85;3.45;;;9.70;99.90;;;;;;4944422;29;20107;-77
2022/11/17 00:56:43;;;;;;;4.35;3.47;;;9.80;99.90;;;;;;4948008;29;20036;-77
2022/11/17 00:59:09;;;;;;;3.60;3.28;;;9.80;99.90;;;;;;4930918;29;20042;-77
2022/11/17 01:01:35;;;;;;;5.53;3.90;;;9.90;99.90;;;;;;4948085;29;20047;-78
2022/11/17 01:04:02;;;;;;;5.50;3.40;;;9.90;99.90;;;;;;4948083;29;20023;-77
2022/11/17 01:06:30;;;;;;;4.50;3.63;;;9.80;99.90;;;;;;4930848;29;20039;-78
2022/11/17 01:09:01;;;;;;;6.25;3.85;;;9.80;99.90;;;;;;4947888;29;20106;-77
2022/11/17 01:11:27;;;;;;;2.22;1.98;;;9.80;99.90;;;;;;4930767;29;20053;-77
2022/11/17 01:13:55;;;;;;;2.90;2.63;;;9.90;99.90;;;;;;4930881;29;20090;-77
2022/11/17 01:16:21;;;;;;;2.88;2.63;;;10.00;99.90;;;;;;4948821;29;20389;-77
2022/11/17 01:18:49;;;;;;;3.33;2.95;;;10.00;99.90;;;;;;4918632;29;20039;-77
2022/11/17 01:21:18;;;;;;;2.60;2.40;;;10.00;99.90;;;;;;4951427;29;20054;-77
2022/11/17 01:23:46;;;;;;;8.68;2.25;;;9.90;99.90;;;;;;4934047;29;20051;-77
2022/11/17 01:26:14;;;;;;;2.72;2.30;;;9.90;99.90;;;;;;4951283;29;20036;-77
2022/11/17 01:28:41;;;;;;;4.15;2.58;;;9.90;99.90;;;;;;4951348;29;20094;-77
2022/11/17 01:31:12;;;;;;;1.70;1.60;;;9.90;99.90;;;;;;4951407;29;20046;-77
2022/11/17 01:33:39;;;;;;;3.35;2.25;;;9.90;99.90;;;;;;4951307;29;20087;-77
2022/11/17 01:36:13;;;;;;;1.65;1.52;;;9.90;99.90;;;;;;4951071;29;20023;-77
2022/11/17 01:38:39;;;;;;;1.05;0.95;;;9.90;99.90;;;;;;4933465;29;20062;-77
2022/11/17 01:41:07;;;;;;;2.08;1.35;;;9.80;99.90;;;;;;4951191;29;20119;-77
2022/11/17 01:43:42;;;;;;;0.30;0.30;;;9.90;99.90;;;;;;4950132;29;20047;-78
2022/11/17 01:46:53;;;;;;;1.02;0.70;;;9.90;99.90;;;;;;4918028;29;20032;-77
2022/11/17 01:49:24;;;;;;;0.93;0.73;;;10.00;99.90;;;;;;4948484;29;20070;-77
2022/11/17 01:51:53;;;;;;;0.57;0.50;;;10.00;99.90;;;;;;4950862;29;20039;-76
2022/11/17 01:54:24;;;;;;;0.80;0.63;;;9.90;99.90;;;;;;4950640;29;20024;-76
2022/11/17 01:56:54;;;;;;;0.20;0.20;;;9.90;99.90;;;;;;4950866;29;20036;-76
2022/11/17 01:59:26;;;;;;;0.57;0.57;;;10.00;99.90;;;;;;4950601;29;20158;-77
2022/11/17 02:01:56;;;;;;;0.43;0.43;;;10.00;99.90;;;;;;4950616;29;20032;-77
2022/11/17 02:04:31;;;;;;;0.10;0.10;;;10.10;99.90;;;;;;4918304;29;20076;-77
2022/11/17 02:07:16;;;;;;;0.30;0.30;;;10.10;99.90;;;;;;4933625;29;20100;-78
2022/11/17 02:09:43;;;;;;;0.52;0.38;;;10.10;99.90;;;;;;4950712;29;20032;-77
2022/11/17 02:12:12;;;;;;;0.10;0.10;;;10.10;99.90;;;;;;4950530;29;20066;-77
2022/11/17 02:14:38;;;;;;;0.20;0.20;;;10.20;99.90;;;;;;4933272;29;20038;-77
2022/11/17 02:17:09;;;;;;;0.85;0.85;;;10.30;99.90;;;;;;4950385;29;20300;-77
2022/11/17 02:19:38;;;;;;;1.23;0.20;;;10.40;99.90;;;;;;4933485;29;20051;-77
2022/11/17 02:22:25;;;;;;;0.32;0.32;;;10.40;99.90;;;;;;4950286;29;20024;-77
2022/11/17 02:25:10;;;;;;;1.40;0.30;;;10.50;99.90;;;;;;4950294;29;20030;-77
2022/11/17 02:27:55;;;;;;;0.32;0.25;;;10.60;99.90;;;;;;4949587;29;20051;-77
2022/11/17 02:30:22;;;;;;;4.50;0.45;;;10.70;99.90;;;;;;4931167;29;20043;-77
2022/11/17 02:33:26;;;;;;;0.10;0.10;;;10.80;99.90;;;;;;4931124;29;20035;-77
2022/11/17 02:36:03;;;;;;;0.22;0.20;;;10.90;99.90;;;;;;4857136;29;20041;-77
2022/11/17 02:38:42;;;;;;;0.10;0.10;;;11.10;99.90;;;;;;4872284;29;20038;-77
2022/11/17 02:41:39;;;;;;;2.17;1.45;;;11.00;99.90;;;;;;4909504;29;20083;-77
2022/11/17 02:44:07;;;;;;;1.15;0.65;;;11.10;99.90;;;;;;4910778;29;20044;-77
2022/11/17 02:46:37;;;;;;;0.32;0.30;;;11.10;99.90;;;;;;4932184;29;20397;-77
2022/11/17 02:49:11;;;;;;;0.30;0.30;;;11.00;99.90;;;;;;4950355;29;20035;-77
2022/11/17 02:51:38;;;;;;;0.22;0.22;;;10.70;99.90;;;;;;4949960;29;20036;-77
2022/11/17 02:54:06;;;;;;;3.08;0.95;;;10.50;99.90;;;;;;4949365;29;20039;-77
2022/11/17 02:56:32;;;;;;;0.30;0.30;;;10.40;99.90;;;;;;4933241;29;20552;-77
2022/11/17 02:59:01;;;;;;;0.10;0.10;;;10.30;99.90;;;;;;4949776;29;20019;-77
2022/11/17 03:01:42;;;;;;;0.23;0.23;;;10.30;99.90;;;;;;4949504;29;20058;-77
2022/11/17 03:04:47;;;;;;;1.05;0.95;;;10.20;99.90;;;;;;4949593;29;20343;-77
2022/11/17 03:07:15;;;;;;;0.63;0.63;;;10.20;99.90;;;;;;4937453;29;20052;-77
2022/11/17 03:10:13;;;;;;;4.40;0.80;;;10.20;99.90;;;;;;4949038;29;20028;-77
2022/11/17 03:12:50;;;;;;;0.10;0.10;;;10.20;99.90;;;;;;4949508;29;20031;-77
2022/11/17 03:15:39;;;;;;;4.03;0.73;;;10.20;99.90;;;;;;4949436;29;20460;-77
2022/11/17 03:18:23;;;;;;;0.52;0.38;;;10.20;99.90;;;;;;4949206;29;20040;-77
2022/11/17 03:21:05;;;;;;;2.17;0.60;;;10.20;99.90;;;;;;4932044;29;20028;-78
2022/11/17 03:23:53;;;;;;;0.40;0.40;;;10.30;99.90;;;;;;4948974;29;20030;-77
2022/11/17 03:26:38;;;;;;;0.20;0.20;;;10.30;99.90;;;;;;4949222;29;20031;-77
2022/11/17 03:29:09;;;;;;;0.60;0.30;;;10.30;99.90;;;;;;4949246;29;20063;-77
2022/11/17 03:31:37;;;;;;;0.50;0.50;;;10.40;99.90;;;;;;4948969;29;20064;-77
2022/11/17 03:34:08;;;;;;;0.35;0.35;;;10.30;99.90;;;;;;4948227;29;20015;-78
2022/11/17 03:36:40;;;;;;;0.30;0.30;;;10.20;99.90;;;;;;4948032;29;20059;-76
2022/11/17 03:39:24;;;;;;;0.20;0.20;;;10.20;99.90;;;;;;4947799;29;20453;-76
2022/11/17 03:41:56;;;;;;;0.10;0.10;;;10.20;99.90;;;;;;4948620;29;20042;-77
2022/11/17 03:44:25;;;;;;;0.85;0.20;;;10.10;99.90;;;;;;4948623;29;20027;-77
2022/11/17 03:46:54;;;;;;;0.20;0.20;;;10.10;99.90;;;;;;4931873;29;20036;-77
2022/11/17 03:49:31;;;;;;;0.20;0.20;;;10.10;99.90;;;;;;4931788;29;20130;-78
2022/11/17 03:51:57;;;;;;;1.20;0.50;;;10.10;99.90;;;;;;4916004;29;20098;-77
2022/11/17 03:54:23;;;;;;;0.30;0.20;;;10.20;99.90;;;;;;4948575;29;20492;-76
2022/11/17 03:57:04;;;;;;;0.43;0.40;;;10.20;99.90;;;;;;4948373;29;20173;-77
2022/11/17 03:59:48;;;;;;;0.40;0.40;;;10.20;99.90;;;;;;4916103;29;20032;-77
2022/11/17 04:02:19;;;;;;;0.10;0.10;;;10.30;99.90;;;;;;4931859;29;20047;-77
2022/11/17 04:05:04;;;;;;;1.20;0.45;;;10.30;99.90;;;;;;4948548;29;20039;-77
2022/11/17 04:07:30;;;;;;;0.10;0.10;;;10.40;99.90;;;;;;4918072;29;20035;-77
2022/11/17 04:09:56;;;;;;;0.30;0.30;;;10.40;99.90;;;;;;4948377;29;20032;-77
2022/11/17 04:17:51;;;;;;;2.47;0.98;;;10.50;99.90;;;;;;4948481;29;20064;-77
2022/11/17 04:20:17;;;;;;;5.20;0.68;;;10.30;99.90;;;;;;4915589;29;20024;-77
2022/11/17 04:22:42;;;;;;;3.63;0.73;;;10.10;99.90;;;;;;4931217;29;20064;-77
2022/11/17 04:28:35;;;;;;;0.60;0.60;;;10.10;99.90;;;;;;4948393;29;20032;-77
2022/11/17 04:30:38;;;;;;;1.05;0.77;;;10.00;99.90;;;;;;4948593;29;20046;-77
2022/11/17 04:33:04;;;;;;;3.42;0.68;;;10.00;99.90;;;;;;4948232;29;20036;-78
2022/11/17 04:35:29;;;;;;;1.20;0.85;;;10.10;99.90;;;;;;4948252;29;20036;-78
2022/11/17 04:37:55;;;;;;;6.97;3.15;;;10.10;99.90;;;;;;4948330;29;20044;-78
2022/11/17 04:40:21;;;;;;;2.70;0.95;;;10.10;99.90;;;;;;4947885;29;20170;-77
2022/11/17 04:42:47;;;;;;;8.05;1.33;;;10.20;99.90;;;;;;4948045;29;20027;-77
2022/11/17 04:45:13;;;;;;;2.17;1.08;;;10.10;99.90;;;;;;4948126;29;20039;-77
2022/11/17 04:47:39;;;;;;;5.20;1.67;;;10.10;99.90;;;;;;4930986;29;20056;-77
2022/11/17 04:50:05;;;;;;;3.25;1.13;;;10.20;99.90;;;;;;4948845;29;20035;-77
2022/11/17 04:52:31;;;;;;;1.08;0.95;;;10.20;99.90;;;;;;4952177;29;20040;-77
2022/11/17 04:54:56;;;;;;;5.68;2.30;;;10.20;99.90;;;;;;4951836;29;20047;-77
2022/11/17 04:57:23;;;;;;;2.85;1.27;;;10.20;99.90;;;;;;4918919;29;20404;-77
2022/11/17 04:59:49;;;;;;;6.25;2.17;;;10.30;99.90;;;;;;4934705;29;20050;-77
2022/11/17 05:02:14;;;;;;;8.43;1.25;;;10.30;99.90;;;;;;4934470;29;20032;-78
2022/11/17 05:04:55;;;;;;;4.38;2.25;;;10.30;99.90;;;;;;4951800;29;20027;-76
2022/11/17 05:07:21;;;;;;;10.30;1.80;;;10.30;99.90;;;;;;4918953;29;20028;-76
2022/11/17 05:09:47;;;;;;;5.75;1.70;;;10.30;99.90;;;;;;4951679;29;20040;-76
2022/11/17 05:14:57;;;;;;;9.73;1.95;;;10.30;99.90;;;;;;4951649;29;20091;-76
2022/11/17 05:17:23;;;;;;;9.43;3.25;;;10.40;99.90;;;;;;4934412;29;20035;-76
2022/11/17 05:19:49;;;;;;;5.13;2.33;;;10.40;99.90;;;;;;4951558;29;20048;-76
2022/11/17 05:25:03;;;;;;;3.15;2.00;;;10.40;99.90;;;;;;4951379;29;20032;-76
2022/11/17 05:27:29;;;;;;;5.50;1.20;;;10.40;99.90;;;;;;4950829;29;20448;-77
2022/11/17 05:29:55;;;;;;;6.07;1.65;;;10.30;99.90;;;;;;4934324;29;20036;-76
2022/11/17 05:32:20;;;;;;;7.10;2.35;;;10.30;99.90;;;;;;4934142;29;20035;-76
2022/11/17 05:34:46;;;;;;;4.43;2.00;;;10.40;99.90;;;;;;4951211;29;20083;-76
2022/11/17 05:37:13;;;;;;;9.77;2.17;;;10.40;99.90;;;;;;4934044;29;20438;-76
2022/11/17 05:39:38;;;;;;;6.60;1.60;;;10.40;99.90;;;;;;4950922;29;20075;-76
2022/11/17 05:42:04;;;;;;;5.63;2.42;;;10.40;99.90;;;;;;4933504;29;20051;-75
2022/11/17 05:44:30;;;;;;;7.93;2.08;;;10.30;99.90;;;;;;4950151;29;20031;-76
2022/11/17 05:46:56;;;;;;;4.90;2.92;;;10.40;99.90;;;;;;4951018;29;20061;-76
2022/11/17 05:49:22;;;;;;;4.70;2.55;;;10.40;99.90;;;;;;4951012;29;20035;-76
2022/11/17 05:51:48;;;;;;;6.07;2.28;;;10.40;99.90;;;;;;4950862;29;20043;-76
2022/11/17 05:54:14;;;;;;;6.57;2.70;;;10.40;99.90;;;;;;4950904;29;20027;-75
2022/11/17 05:56:51;;;;;;;6.68;2.47;;;10.30;99.90;;;;;;4950327;29;20035;-76
2022/11/17 05:59:41;;;;;;;8.90;1.27;;;10.40;99.90;;;;;;4933506;29;20114;-75
2022/11/17 06:02:31;;;;;;;3.33;1.23;;;10.40;99.90;;;;;;4949875;29;20088;-75
2022/11/17 06:04:57;;;;;;;4.72;1.85;;;10.40;99.90;;;;;;4933676;29;20102;-75
2022/11/17 06:07:23;;;;;;;8.82;2.95;;;10.40;99.90;;;;;;4933756;29;20031;-76
2022/11/17 06:09:50;;;;;;;1.50;1.25;;;10.50;99.90;;;;;;4946926;29;20505;-75
2022/11/17 06:12:16;;;;;;;5.57;1.63;;;10.50;99.90;;;;;;4968040;29;20031;-75
2022/11/17 06:14:42;;;;;;;6.93;1.73;;;10.60;99.90;;;;;;4942608;29;20027;-76
2022/11/17 06:17:18;;;;;;;6.20;2.38;;;10.50;99.90;;;;;;4918843;29;20099;-76
2022/11/17 06:19:55;;;;;;;1.52;1.30;;;10.50;99.90;;;;;;4944537;29;20036;-76
2022/11/17 06:22:20;;;;;;;5.82;1.00;;;10.40;99.90;;;;;;4949802;29;20087;-76
2022/11/17 06:24:47;;;;;;;6.18;1.38;;;10.40;99.90;;;;;;4916875;29;20024;-76
2022/11/17 06:27:15;;;;;;;6.20;2.55;;;10.50;99.90;;;;;;4950314;29;20095;-76
2022/11/17 06:29:41;;;;;;;6.60;1.00;;;10.50;99.90;;;;;;4917071;29;20044;-75
2022/11/17 06:32:08;;;;;;;2.67;0.82;;;10.50;99.90;;;;;;4917073;29;20028;-75
2022/11/17 06:34:34;;;;;;;11.65;2.28;;;10.40;99.90;;;;;;4909041;29;20035;-76
2022/11/17 06:37:00;;;;;;;3.03;0.90;;;10.50;99.90;;;;;;4946272;29;20036;-76
2022/11/17 06:39:26;;;;;;;4.93;1.95;;;10.50;99.90;;;;;;4924209;29;20044;-75
2022/11/17 06:41:51;;;;;;;5.80;2.63;;;10.50;99.90;;;;;;4949315;29;20063;-76
2022/11/17 06:44:18;;;;;;;2.63;1.55;;;10.40;99.90;;;;;;4922431;29;20370;-76
2022/11/17 06:46:44;;;;;;;4.25;1.45;;;10.40;99.90;;;;;;4940638;29;20130;-76
2022/11/17 06:49:09;;;;;;;3.40;1.88;;;10.40;99.90;;;;;;4936543;29;20050;-76
2022/11/17 06:51:35;;;;;;;4.90;1.17;;;10.50;99.90;;;;;;4926907;29;20040;-76
2022/11/17 06:54:02;;;;;;;2.53;1.60;;;10.40;99.90;;;;;;4919239;29;20039;-76
2022/11/17 06:56:29;;;;;;;4.68;1.50;;;10.40;99.90;;;;;;4932100;29;20036;-76
2022/11/17 06:58:55;;;;;;;1.83;1.35;;;10.40;99.90;;;;;;4931610;29;20039;-76
2022/11/17 07:01:21;;;;;;;2.15;1.05;;;10.30;99.90;;;;;;4900921;29;20020;-76
2022/11/17 07:03:48;;;;;;;3.63;1.02;;;10.30;99.90;;;;;;4941958;29;20119;-76
2022/11/17 07:06:15;;;;;;;6.63;2.05;;;10.30;99.90;;;;;;4926378;29;20032;-76
2022/11/17 07:08:41;;;;;;;12.30;3.35;;;10.40;99.90;;;;;;4948700;29;20034;-76
2022/11/17 07:11:12;;;;;;;12.57;2.15;;;10.30;99.90;;;;;;4930632;29;20079;-76
2022/11/17 07:13:38;;;;;;;4.00;1.52;;;10.30;99.90;;;;;;4946084;29;20028;-76
2022/11/17 07:16:06;;;;;;;1.80;1.58;;;10.30;99.90;;;;;;4931192;29;20031;-76
2022/11/17 07:18:33;;;;;;;2.60;1.65;;;10.30;99.90;;;;;;4947496;29;20031;-76
2022/11/17 07:21:06;;;;;;;1.88;1.00;;;10.30;99.90;;;;;;4947983;29;20027;-76
2022/11/17 07:23:33;;;;;;;2.45;1.50;;;10.30;99.90;;;;;;4913704;29;20487;-76
2022/11/17 07:26:00;;;;;;;0.98;0.93;;;10.10;99.90;;;;;;4930527;29;20030;-76
2022/11/17 07:28:26;;;;;;;4.18;1.05;;;10.20;99.90;;;;;;4931042;29;20067;-76
2022/11/17 07:30:53;;;;;;;3.08;1.33;;;10.20;99.90;;;;;;4928263;29;20035;-76
2022/11/17 07:33:19;;;;;;;4.13;1.23;;;10.30;99.90;;;;;;4931499;29;20474;-76
2022/11/17 07:35:45;;;;;;;3.78;1.08;;;10.20;99.90;;;;;;4946834;29;20627;-76
2022/11/17 07:38:11;;;;;;;5.80;0.70;;;10.20;99.90;;;;;;4930316;29;20099;-76
2022/11/17 07:40:37;;;;;;;1.58;0.50;;;10.20;99.90;;;;;;4930343;29;20040;-76
2022/11/17 07:43:02;;;;;;;1.60;1.00;;;10.20;99.90;;;;;;4929962;29;20100;-76
2022/11/17 07:45:29;;;;;;;1.40;0.38;;;10.20;99.90;;;;;;4930948;29;20032;-76
2022/11/17 07:47:57;;;;;;;2.35;1.10;;;10.20;99.90;;;;;;4916005;29;20100;-76
2022/11/17 07:50:24;;;;;;;4.47;0.60;;;10.20;99.90;;;;;;4931128;29;20034;-76
2022/11/17 07:52:51;;;;;;;1.80;1.08;;;10.20;99.90;;;;;;4913247;29;20063;-76
2022/11/17 07:55:17;;;;;;;1.25;0.85;;;10.20;99.90;;;;;;4914906;29;20043;-76
2022/11/17 07:57:42;;;;;;;0.80;0.73;;;10.10;99.90;;;;;;4948099;29;20378;-76
2022/11/17 08:00:09;;;;;;;2.90;0.70;;;10.10;99.90;;;;;;4914628;29;20091;-76
2022/11/17 08:02:40;;;;;;;5.30;0.95;;;10.10;99.90;;;;;;4915244;29;20063;-76
2022/11/17 08:05:07;;;;;;;1.55;0.55;;;10.10;99.90;;;;;;4930480;29;20036;-76
2022/11/17 08:07:33;;;;;;;1.30;1.17;;;10.10;99.90;;;;;;4930281;29;20039;-76
2022/11/17 08:09:58;;;;;;;10.25;1.38;;;10.10;99.90;;;;;;4964303;29;20050;-76
2022/11/17 08:12:24;;;;;;;1.20;0.90;;;10.10;99.90;;;;;;4941573;29;20035;-76
2022/11/17 08:14:50;;;;;;;1.95;0.85;;;10.10;99.90;;;;;;4918650;29;20032;-76
2022/11/17 08:17:19;;;;;;;1.60;1.13;;;10.10;99.90;;;;;;4917159;29;20132;-76
2022/11/17 08:19:45;;;;;;;7.97;1.75;;;10.10;99.90;;;;;;4949088;29;20047;-76
2022/11/17 08:22:10;;;;;;;1.65;0.70;;;10.20;99.90;;;;;;4940141;29;20124;-76
2022/11/17 08:24:36;;;;;;;1.15;0.47;;;10.20;99.90;;;;;;4952876;29;20036;-76
2022/11/17 08:27:02;;;;;;;2.40;1.67;;;10.30;99.90;;;;;;4955023;29;20032;-76
2022/11/17 08:29:27;;;;;;;0.75;0.32;;;10.30;99.90;;;;;;4952451;29;20035;-76
2022/11/17 08:31:53;;;;;;;1.20;1.00;;;10.30;99.90;;;;;;4921410;29;20038;-76
2022/11/17 08:34:19;;;;;;;0.70;0.35;;;10.30;99.90;;;;;;4954258;29;20031;-76
2022/11/17 08:36:45;;;;;;;1.45;1.10;;;10.30;99.90;;;;;;4954069;29;20036;-76
2022/11/17 08:39:10;;;;;;;2.88;0.95;;;10.30;99.90;;;;;;4921098;29;20035;-76
2022/11/17 08:41:36;;;;;;;1.48;0.65;;;10.30;99.90;;;;;;4927123;29;20543;-76
2022/11/17 08:44:02;;;;;;;2.20;1.02;;;10.30;99.90;;;;;;4911663;29;20036;-75
2022/11/17 08:46:28;;;;;;;1.02;0.85;;;10.20;99.90;;;;;;4947430;29;20023;-76
2022/11/17 08:48:53;;;;;;;2.13;1.02;;;10.20;99.90;;;;;;4953870;29;20400;-76
2022/11/17 08:51:21;;;;;;;2.92;1.02;;;10.30;99.90;;;;;;4954098;29;20044;-76
2022/11/17 08:53:47;;;;;;;0.57;0.35;;;10.30;99.90;;;;;;4953879;29;20055;-76
2022/11/17 08:56:13;;;;;;;2.42;1.30;;;10.30;99.90;;;;;;4929935;29;20032;-75
2022/11/17 08:58:40;;;;;;;9.77;0.60;;;10.40;99.90;;;;;;4952517;29;20034;-76
2022/11/17 09:01:14;;;;;;;1.08;0.80;;;10.50;99.90;;;;;;4950870;29;20032;-76
2022/11/17 09:03:46;;;;;;;3.05;1.08;;;10.50;99.90;;;;;;4933006;29;20028;-76
2022/11/17 09:06:14;;;;;;;0.95;0.40;;;10.60;99.90;;;;;;4951235;29;20031;-76
2022/11/17 09:08:40;;;;;;;5.15;1.98;;;10.60;99.90;;;;;;4933108;29;20115;-76
2022/11/17 09:11:08;;;;;;;0.28;0.28;;;10.70;99.90;;;;;;4936454;29;20051;-75
2022/11/17 09:13:34;;;;;;;2.88;0.70;;;10.80;99.90;;;;;;4953897;29;20107;-75
2022/11/17 09:16:09;;;;;;;0.57;0.57;;;10.90;99.90;;;;;;4936477;29;20132;-76
2022/11/17 09:18:36;;;;;;;1.77;1.67;;;11.10;99.90;;;;;;4940254;29;20055;-75
2022/11/17 09:21:08;;;;;;;2.20;1.88;;;11.40;99.90;;;;;;4953438;29;20050;-75
2022/11/17 09:23:35;;;;;;;2.30;1.92;;;11.80;99.90;;;;;;4949958;29;20059;-76
2022/11/17 09:26:06;;;;;;;7.70;4.55;;;11.90;99.90;;;;;;4945079;29;20027;-76
2022/11/17 09:28:32;;;;;;;5.10;4.57;;;12.00;99.90;;;;;;4953537;29;20475;-75
2022/11/17 09:30:59;;;;;;;21.00;12.55;;;11.90;99.90;;;;;;4953890;29;20035;-77
2022/11/17 09:33:25;;;;;;;6.97;4.78;;;11.90;99.90;;;;;;4954257;29;20051;-77
2022/11/17 09:35:50;;;;;;;7.68;7.07;;;11.80;99.90;;;;;;4921658;29;20051;-77
2022/11/17 09:38:16;;;;;;;1.48;1.02;;;11.70;99.90;;;;;;4950271;29;20091;-76
2022/11/17 09:40:42;;;;;;;3.60;1.23;;;11.80;99.90;;;;;;4951358;29;20063;-76
2022/11/17 09:43:32;;;;;;;3.95;3.38;;;12.00;99.90;;;;;;4951210;29;20075;-77
2022/11/17 09:46:45;;;;;;;5.47;0.90;;;12.20;99.90;;;;;;4934321;29;20032;-77
2022/11/17 09:49:29;;;;;;;0.60;0.47;;;12.20;99.90;;;;;;4932607;29;20054;-77
2022/11/17 09:52:00;;;;;;;0.98;0.52;;;12.30;99.90;;;;;;4951049;29;20032;-76
2022/11/17 09:54:37;;;;;;;1.45;1.05;;;12.40;99.90;;;;;;4950445;29;20071;-77
2022/11/17 09:57:06;;;;;;;1.23;0.65;;;12.50;99.90;;;;;;4951006;29;20036;-77
2022/11/17 09:59:33;;;;;;;2.63;0.70;;;12.40;99.90;;;;;;4950315;29;20027;-78
2022/11/17 10:01:59;;;;;;;1.30;0.82;;;12.30;99.90;;;;;;4950669;29;20023;-77
2022/11/17 10:04:28;;;;;;;4.72;4.32;;;12.30;99.90;;;;;;4950990;29;20047;-77
2022/11/17 10:06:54;;;;;;;9.95;1.48;;;12.20;99.90;;;;;;4950698;29;20055;-77
2022/11/17 10:09:37;;;;;;;3.15;2.45;;;12.20;99.90;;;;;;4949530;29;20040;-77
2022/11/17 10:12:14;;;;;;;3.08;2.28;;;12.10;99.90;;;;;;4950243;29;20047;-77
2022/11/17 10:14:40;;;;;;;2.25;1.50;;;12.00;99.90;;;;;;4950777;29;20091;-77
2022/11/17 10:17:08;;;;;;;16.63;2.60;;;12.00;99.90;;;;;;4950675;29;20394;-77
2022/11/17 10:19:37;;;;;;;1.73;1.42;;;12.00;99.90;;;;;;4932988;29;20043;-77
2022/11/17 10:22:02;;;;;;;1.48;1.38;;;12.00;99.90;;;;;;4933955;29;20034;-77
2022/11/17 10:24:37;;;;;;;8.02;2.38;;;12.00;99.90;;;;;;4950325;29;20043;-77
2022/11/17 10:27:19;;;;;;;4.65;4.32;;;12.00;99.90;;;;;;4950832;29;20039;-76
2022/11/17 10:30:05;;;;;;;3.78;2.95;;;11.90;99.90;;;;;;4932937;29;20039;-76
2022/11/17 10:32:37;;;;;;;4.00;1.90;;;11.80;99.90;;;;;;4949356;29;20038;-77
2022/11/17 10:35:35;;;;;;;3.53;3.03;;;11.90;99.90;;;;;;4950287;29;20046;-77
2022/11/17 10:38:12;;;;;;;8.15;5.75;;;12.00;99.90;;;;;;4938679;29;20051;-77
2022/11/17 10:40:38;;;;;;;3.92;3.30;;;11.90;99.90;;;;;;4932650;29;20100;-77
2022/11/17 10:43:12;;;;;;;3.28;2.15;;;12.00;99.90;;;;;;4939548;29;20060;-77
2022/11/17 10:45:53;;;;;;;3.20;2.65;;;12.00;99.90;;;;;;4950016;29;20051;-77
2022/11/17 10:48:26;;;;;;;1.70;1.08;;;12.10;99.90;;;;;;4917161;29;20027;-77
2022/11/17 10:50:58;;;;;;;0.77;0.43;;;12.00;99.90;;;;;;4950217;29;20066;-77
2022/11/17 10:53:30;;;;;;;5.82;1.90;;;12.00;99.90;;;;;;4949913;29;20036;-77
2022/11/17 10:56:01;;;;;;;5.25;1.83;;;12.00;99.90;;;;;;4932376;29;20608;-77
2022/11/17 10:58:29;;;;;;;0.70;0.57;;;12.00;99.90;;;;;;4945931;29;20512;-78
2022/11/17 11:01:03;;;;;;;1.27;1.10;;;12.00;99.90;;;;;;4950146;29;20039;-78
2022/11/17 11:03:31;;;;;;;0.45;0.43;;;12.00;99.90;;;;;;4948905;29;20031;-78
2022/11/17 11:06:03;;;;;;;3.15;2.05;;;12.10;99.90;;;;;;4949867;29;20032;-78
2022/11/17 11:08:35;;;;;;;4.50;2.33;;;12.20;99.90;;;;;;4949366;29;20028;-78
2022/11/17 11:11:07;;;;;;;2.47;0.50;;;12.20;99.90;;;;;;4917069;29;20044;-76
2022/11/17 11:13:43;;;;;;;3.75;0.60;;;12.30;99.90;;;;;;4945400;29;20055;-76
2022/11/17 11:16:10;;;;;;;1.92;1.58;;;12.50;99.90;;;;;;4960586;29;20035;-76
2022/11/17 11:18:37;;;;;;;2.25;0.65;;;12.70;99.90;;;;;;4968486;29;20038;-75
2022/11/17 11:21:25;;;;;;;6.20;1.25;;;12.80;99.90;;;;;;4951039;29;20031;-75
2022/11/17 11:24:16;;;;;;;1.65;0.40;;;13.00;99.90;;;;;;4953506;29;20105;-75
2022/11/17 11:27:03;;;;;;;2.92;1.48;;;13.10;99.90;;;;;;4948074;29;20051;-76
2022/11/17 11:29:49;;;;;;;3.55;1.20;;;13.10;99.90;;;;;;4913232;29;20064;-75
2022/11/17 11:32:38;;;;;;;0.70;0.70;;;12.90;99.90;;;;;;4930117;29;20502;-75
2022/11/17 11:35:20;;;;;;;1.23;0.98;;;13.20;99.90;;;;;;4934940;29;20506;-75
2022/11/17 11:38:01;;;;;;;2.10;0.80;;;13.20;99.90;;;;;;4948104;29;20476;-75
2022/11/17 11:40:40;;;;;;;3.78;1.15;;;13.10;99.90;;;;;;4948228;29;20070;-75
2022/11/17 11:43:21;;;;;;;6.03;0.93;;;13.10;99.90;;;;;;4948819;29;20027;-75
2022/11/17 11:46:00;;;;;;;1.63;0.85;;;13.10;99.90;;;;;;4948780;29;20028;-76
2022/11/17 11:48:26;;;;;;;2.00;0.77;;;12.30;99.90;;;;;;4948096;29;20074;-75
2022/11/17 11:51:10;;;;;;;1.05;0.60;;;12.10;99.90;;;;;;4948345;29;20046;-76
2022/11/17 11:54:14;;;;;;;2.85;1.02;;;11.80;99.90;;;;;;4948284;29;20367;-76
2022/11/17 11:56:43;;;;;;;7.30;1.25;;;11.70;99.90;;;;;;4948554;29;20032;-76
2022/11/17 11:59:19;;;;;;;0.93;0.73;;;11.50;99.90;;;;;;4945584;29;20064;-76
2022/11/17 12:02:00;;;;;;;1.17;0.50;;;11.40;99.90;;;;;;4947115;29;20032;-76
2022/11/17 12:04:36;;;;;;;1.67;0.73;;;11.50;99.90;;;;;;4948746;29;20034;-75
2022/11/17 12:07:13;;;;;;;6.57;1.25;;;11.60;99.90;;;;;;4948350;29;20046;-76
2022/11/17 12:10:02;;;;;;;1.05;0.73;;;11.50;99.90;;;;;;4947995;29;20051;-76
2022/11/17 12:12:36;;;;;;;0.63;0.63;;;11.40;99.90;;;;;;4915466;29;20042;-76
2022/11/17 12:15:19;;;;;;;5.10;0.65;;;11.60;99.90;;;;;;4948311;29;20028;-75
2022/11/17 12:17:59;;;;;;;3.13;1.58;;;12.00;99.90;;;;;;4931381;29;20148;-75
2022/11/17 12:20:37;;;;;;;1.42;1.02;;;12.30;99.90;;;;;;4947878;29;20050;-76
2022/11/17 12:23:27;;;;;;;1.80;1.10;;;12.50;99.90;;;;;;4946691;29;20020;-76
2022/11/17 12:25:56;;;;;;;2.33;0.80;;;12.60;99.90;;;;;;4943982;29;20027;-76
2022/11/17 12:28:28;;;;;;;3.50;1.30;;;13.00;99.90;;;;;;4948407;29;20070;-76
2022/11/17 12:31:28;;;;;;;0.85;0.85;;;13.00;99.90;;;;;;4948320;29;20027;-76
2022/11/17 12:34:00;;;;;;;1.02;0.52;;;13.00;99.90;;;;;;4947403;29;20039;-75
2022/11/17 12:36:31;;;;;;;0.57;0.47;;;13.00;99.90;;;;;;4946218;29;20404;-76
2022/11/17 12:38:59;;;;;;;1.52;0.40;;;13.00;99.90;;;;;;4941367;29;20039;-75
2022/11/17 12:41:47;;;;;;;1.92;0.40;;;12.90;99.90;;;;;;4947564;29;20438;-76
2022/11/17 12:44:37;;;;;;;1.00;0.52;;;13.00;99.90;;;;;;4914165;29;20100;-76
2022/11/17 12:47:12;;;;;;;1.02;0.50;;;13.10;99.90;;;;;;4947487;29;20032;-76
2022/11/17 12:49:43;;;;;;;0.35;0.35;;;13.10;99.90;;;;;;4947603;29;20046;-76
2022/11/17 12:52:19;;;;;;;1.50;0.82;;;13.10;99.90;;;;;;4947700;29;20032;-76
2022/11/17 12:55:25;;;;;;;0.32;0.32;;;13.10;99.90;;;;;;4930728;29;20047;-76
2022/11/17 12:58:05;;;;;;;1.10;0.30;;;13.10;99.90;;;;;;4925897;29;20505;-76
2022/11/17 13:00:39;;;;;;;0.30;0.30;;;13.10;99.90;;;;;;4931107;29;20024;-76
2022/11/17 13:03:09;;;;;;;3.22;0.80;;;13.20;99.90;;;;;;4948197;29;20094;-76
2022/11/17 13:05:37;;;;;;;1.38;0.63;;;13.30;99.90;;;;;;4931030;29;20038;-76
2022/11/17 13:08:29;;;;;;;1.20;0.77;;;13.20;99.90;;;;;;4947774;29;20035;-76
2022/11/17 13:11:04;;;;;;;1.75;1.20;;;13.30;99.90;;;;;;4944630;29;20084;-76
2022/11/17 13:13:30;;;;;;;3.03;0.50;;;13.20;99.90;;;;;;4934355;29;20576;-76
2022/11/17 13:15:59;;;;;;;1.88;1.67;;;13.00;99.90;;;;;;4918865;29;20123;-76
2022/11/17 13:18:36;;;;;;;1.65;1.23;;;13.00;99.90;;;;;;4951335;29;20031;-76
2022/11/17 13:21:13;;;;;;;0.63;0.63;;;12.90;99.90;;;;;;4951578;29;20028;-76
2022/11/17 13:23:44;;;;;;;3.92;1.00;;;12.90;99.90;;;;;;4950457;29;20028;-76
2022/11/17 13:26:15;;;;;;;2.35;1.48;;;13.00;99.90;;;;;;4951001;29;20043;-76
2022/11/17 13:28:43;;;;;;;5.28;1.55;;;13.00;99.90;;;;;;4934069;29;20118;-76
2022/11/17 13:31:20;;;;;;;5.32;1.88;;;13.10;99.90;;;;;;4951216;29;20035;-76